createdAt,value
2017-10-30T00:01:22.931Z,7.00
2017-10-30T00:03:51.206Z,7.00
2017-10-30T00:06:19.509Z,7.00
2017-10-30T00:08:47.807Z,7.00
2017-10-30T00:11:16.122Z,7.00
2017-10-30T00:13:44.411Z,7.00
2017-10-30T00:16:12.715Z,6.90
2017-10-30T00:18:41.006Z,7.00
2017-10-30T00:21:09.330Z,7.00
2017-10-30T00:23:37.671Z,6.90
2017-10-30T00:26:05.944Z,6.90
2017-10-30T00:28:35.022Z,6.90
2017-10-30T00:31:04.087Z,6.90
2017-10-30T00:33:32.390Z,6.80
2017-10-30T00:36:00.716Z,6.90
2017-10-30T00:38:29.023Z,6.80
2017-10-30T00:40:57.327Z,6.80
2017-10-30T00:43:25.672Z,6.80
2017-10-30T00:45:53.976Z,6.80
2017-10-30T00:48:23.231Z,6.80
2017-10-30T00:50:51.543Z,6.80
2017-10-30T00:53:19.827Z,6.80
2017-10-30T00:55:48.156Z,6.80
2017-10-30T00:58:16.448Z,6.80
2017-10-30T01:00:44.771Z,6.80
2017-10-30T01:03:13.069Z,6.70
2017-10-30T01:05:41.370Z,6.70
2017-10-30T01:08:09.667Z,6.80
2017-10-30T01:10:37.988Z,6.70
2017-10-30T01:13:06.304Z,6.70
2017-10-30T01:15:35.355Z,6.70
2017-10-30T01:18:05.645Z,6.60
2017-10-30T01:20:33.934Z,6.70
2017-10-30T01:23:02.230Z,6.70
2017-10-30T01:25:30.555Z,6.70
2017-10-30T01:27:59.835Z,6.70
2017-10-30T01:30:28.161Z,6.70
2017-10-30T01:32:56.472Z,6.60
2017-10-30T01:35:28.985Z,6.60
2017-10-30T01:37:58.071Z,6.50
2017-10-30T01:40:26.405Z,6.50
2017-10-30T01:42:54.731Z,6.50
2017-10-30T01:45:23.050Z,6.50
2017-10-30T01:47:52.114Z,6.50
2017-10-30T01:50:20.400Z,6.40
2017-10-30T01:52:48.746Z,6.40
2017-10-30T01:55:17.091Z,6.40
2017-10-30T01:57:45.413Z,6.50
2017-10-30T02:00:14.235Z,6.50
2017-10-30T02:02:42.529Z,6.50
2017-10-30T02:05:10.800Z,6.40
2017-10-30T02:07:44.942Z,6.40
2017-10-30T02:10:13.302Z,6.40
2017-10-30T02:12:41.576Z,6.40
2017-10-30T02:15:13.089Z,6.40
2017-10-30T02:17:42.144Z,6.50
2017-10-30T02:20:10.425Z,6.40
2017-10-30T02:22:39.496Z,6.50
2017-10-30T02:25:07.844Z,6.40
2017-10-30T02:27:36.925Z,6.40
2017-10-30T02:30:05.249Z,6.30
2017-10-30T02:32:34.297Z,6.40
2017-10-30T02:35:02.599Z,6.30
2017-10-30T02:37:30.915Z,6.40
2017-10-30T02:39:59.191Z,6.30
2017-10-30T02:42:27.537Z,6.30
2017-10-30T02:44:55.831Z,6.30
2017-10-30T02:47:27.539Z,6.30
2017-10-30T02:49:55.827Z,6.20
2017-10-30T02:52:24.155Z,6.30
2017-10-30T02:54:52.441Z,6.30
2017-10-30T02:57:20.755Z,6.20
2017-10-30T02:59:49.087Z,6.20
2017-10-30T03:02:17.376Z,6.20
2017-10-30T03:04:46.466Z,6.10
2017-10-30T03:07:14.812Z,6.10
2017-10-30T03:09:43.144Z,6.10
2017-10-30T03:12:11.845Z,6.10
2017-10-30T03:14:40.226Z,6.10
2017-10-30T03:17:09.287Z,6.10
2017-10-30T03:19:37.559Z,6.10
2017-10-30T03:22:05.889Z,6.10
2017-10-30T03:24:34.194Z,6.10
2017-10-30T03:27:02.481Z,6.10
2017-10-30T03:29:30.796Z,6.10
2017-10-30T03:31:59.085Z,6.00
2017-10-30T03:34:27.423Z,6.10
2017-10-30T03:36:56.561Z,6.00
2017-10-30T03:39:24.856Z,6.00
2017-10-30T03:41:53.165Z,6.00
2017-10-30T03:44:21.500Z,6.00
2017-10-30T03:46:50.552Z,6.10
2017-10-30T03:49:26.830Z,6.00
2017-10-30T03:51:55.183Z,6.10
2017-10-30T03:54:23.511Z,6.00
2017-10-30T03:56:52.594Z,5.90
2017-10-30T03:59:22.839Z,5.80
2017-10-30T04:01:51.142Z,5.80
2017-10-30T04:04:19.468Z,5.70
2017-10-30T04:06:47.761Z,5.70
2017-10-30T04:09:16.049Z,5.60
2017-10-30T04:11:59.221Z,5.60
2017-10-30T04:14:27.536Z,5.50
2017-10-30T04:16:55.873Z,5.50
2017-10-30T04:19:24.178Z,5.40
2017-10-30T04:21:52.495Z,5.40
2017-10-30T04:24:20.782Z,5.30
2017-10-30T04:26:49.067Z,5.30
2017-10-30T04:29:17.455Z,5.30
2017-10-30T04:31:46.545Z,5.20
2017-10-30T04:34:14.860Z,5.10
2017-10-30T04:36:43.178Z,5.10
2017-10-30T04:39:12.253Z,5.10
2017-10-30T04:41:40.580Z,5.00
2017-10-30T04:44:08.880Z,5.10
2017-10-30T04:46:37.171Z,5.10
2017-10-30T04:49:05.509Z,5.10
2017-10-30T04:51:35.487Z,5.20
2017-10-30T04:54:03.788Z,5.20
2017-10-30T04:56:32.144Z,5.30
2017-10-30T04:59:00.422Z,5.40
2017-10-30T05:01:28.732Z,5.50
2017-10-30T05:03:57.031Z,5.50
2017-10-30T05:06:25.366Z,5.60
2017-10-30T05:08:54.427Z,5.70
2017-10-30T05:11:22.740Z,5.70
2017-10-30T05:13:51.028Z,5.80
2017-10-30T05:16:19.337Z,5.80
2017-10-30T05:18:47.719Z,5.90
2017-10-30T05:21:16.003Z,6.00
2017-10-30T05:23:45.076Z,5.90
2017-10-30T05:26:13.383Z,5.90
2017-10-30T05:28:41.711Z,6.00
2017-10-30T05:31:10.004Z,6.00
2017-10-30T05:33:38.285Z,6.10
2017-10-30T05:36:06.624Z,6.10
2017-10-30T05:38:34.919Z,6.10
2017-10-30T05:41:03.934Z,6.10
2017-10-30T05:43:32.252Z,6.10
2017-10-30T05:46:01.510Z,6.20
2017-10-30T05:48:29.799Z,6.20
2017-10-30T05:50:58.892Z,6.30
2017-10-30T05:53:27.202Z,6.20
2017-10-30T05:55:56.327Z,6.40
2017-10-30T05:58:25.385Z,6.40
2017-10-30T06:01:00.175Z,6.30
2017-10-30T06:03:28.506Z,6.40
2017-10-30T06:05:56.797Z,6.40
2017-10-30T06:08:25.259Z,6.40
2017-10-30T06:11:03.312Z,6.30
2017-10-30T06:13:31.916Z,6.40
2017-10-30T06:16:02.882Z,6.40
2017-10-30T06:18:31.288Z,6.40
2017-10-30T06:20:59.702Z,6.50
2017-10-30T06:23:28.016Z,6.50
2017-10-30T06:25:56.413Z,6.50
2017-10-30T06:28:24.726Z,6.50
2017-10-30T06:30:53.034Z,6.50
2017-10-30T06:33:21.361Z,6.50
2017-10-30T06:35:49.679Z,6.40
2017-10-30T06:38:18.008Z,6.40
2017-10-30T06:40:46.338Z,6.50
2017-10-30T06:43:15.675Z,6.50
2017-10-30T06:45:44.738Z,6.60
2017-10-30T06:48:13.047Z,6.50
2017-10-30T06:50:41.375Z,6.60
2017-10-30T06:53:09.699Z,6.60
2017-10-30T06:55:38.012Z,6.70
2017-10-30T06:58:06.347Z,6.70
2017-10-30T07:00:34.648Z,6.70
2017-10-30T07:03:02.967Z,6.80
2017-10-30T07:05:31.280Z,6.80
2017-10-30T07:08:00.511Z,6.90
2017-10-30T07:10:28.818Z,6.90
2017-10-30T07:12:57.179Z,7.00
2017-10-30T07:15:25.509Z,7.10
2017-10-30T07:17:53.847Z,7.30
2017-10-30T07:20:26.582Z,7.40
2017-10-30T07:22:54.931Z,7.50
2017-10-30T07:25:23.238Z,7.50
2017-10-30T07:27:51.519Z,7.40
2017-10-30T07:30:19.834Z,7.50
2017-10-30T07:32:48.133Z,7.50
2017-10-30T07:35:16.470Z,7.50
2017-10-30T07:37:45.774Z,7.50
2017-10-30T07:40:14.131Z,7.40
2017-10-30T07:42:42.444Z,7.40
2017-10-30T07:45:10.732Z,7.40
2017-10-30T07:47:39.031Z,7.50
2017-10-30T07:50:07.364Z,7.60
2017-10-30T07:52:35.695Z,7.70
2017-10-30T07:55:03.972Z,7.80
2017-10-30T07:57:32.302Z,7.90
2017-10-30T08:00:00.623Z,8.30
2017-10-30T08:02:28.908Z,8.60
2017-10-30T08:04:57.236Z,8.70
2017-10-30T08:07:26.336Z,8.60
2017-10-30T08:09:54.631Z,8.60
2017-10-30T08:12:22.908Z,8.50
2017-10-30T08:14:51.219Z,8.40
2017-10-30T08:17:19.511Z,8.40
2017-10-30T08:19:47.823Z,8.50
2017-10-30T08:22:16.105Z,8.50
2017-10-30T08:24:44.446Z,8.40
2017-10-30T08:27:12.776Z,8.40
2017-10-30T08:29:41.082Z,8.30
2017-10-30T08:32:09.404Z,8.40
2017-10-30T08:34:37.719Z,8.40
2017-10-30T08:37:06.892Z,8.30
2017-10-30T08:39:35.175Z,8.30
2017-10-30T08:42:03.508Z,8.40
2017-10-30T08:44:31.904Z,8.40
2017-10-30T08:47:00.189Z,8.40
2017-10-30T08:49:28.499Z,8.50
2017-10-30T08:51:56.799Z,8.50
2017-10-30T08:54:25.114Z,8.60
2017-10-30T08:56:53.390Z,8.50
2017-10-30T08:59:21.667Z,8.50
2017-10-30T09:01:49.990Z,8.50
2017-10-30T09:04:19.059Z,8.60
2017-10-30T09:06:47.433Z,8.50
2017-10-30T09:09:15.772Z,8.60
2017-10-30T09:11:44.089Z,8.60
2017-10-30T09:14:12.395Z,8.60
2017-10-30T09:16:40.868Z,8.70
2017-10-30T09:19:09.206Z,8.70
2017-10-30T09:21:37.506Z,8.80
2017-10-30T09:24:06.093Z,8.90
2017-10-30T09:26:34.431Z,9.00
2017-10-30T09:29:02.800Z,9.10
2017-10-30T09:31:31.132Z,9.30
2017-10-30T09:33:59.413Z,9.20
2017-10-30T09:36:27.975Z,9.30
2017-10-30T09:38:57.059Z,9.40
2017-10-30T09:41:25.402Z,9.40
2017-10-30T09:43:54.504Z,9.40
2017-10-30T09:46:22.842Z,9.40
2017-10-30T09:48:51.191Z,9.40
2017-10-30T09:51:19.596Z,9.40
2017-10-30T09:53:47.887Z,9.40
2017-10-30T09:56:16.212Z,9.50
2017-10-30T09:58:45.348Z,10.10
2017-10-30T10:01:15.053Z,10.10
2017-10-30T10:03:43.840Z,10.00
2017-10-30T10:06:12.145Z,9.90
2017-10-30T10:08:40.447Z,9.90
2017-10-30T10:11:08.797Z,9.90
2017-10-30T10:13:37.148Z,9.90
2017-10-30T10:16:05.443Z,9.90
2017-10-30T10:18:34.539Z,10.40
2017-10-30T10:21:03.627Z,10.60
2017-10-30T10:23:31.944Z,10.60
2017-10-30T10:26:01.395Z,11.40
2017-10-30T10:28:30.451Z,12.00
2017-10-30T10:30:58.769Z,12.00
2017-10-30T10:33:27.107Z,12.30
2017-10-30T10:35:55.431Z,12.40
2017-10-30T10:38:23.751Z,12.30
2017-10-30T10:40:52.045Z,12.00
2017-10-30T10:43:20.330Z,11.70
2017-10-30T10:45:49.424Z,11.40
2017-10-30T10:48:17.755Z,11.40
2017-10-30T10:50:46.060Z,11.50
2017-10-30T10:53:14.465Z,11.70
2017-10-30T10:55:44.488Z,12.30
2017-10-30T10:58:13.632Z,12.50
2017-10-30T11:00:42.694Z,12.30
2017-10-30T11:03:11.058Z,12.30
2017-10-30T11:05:40.120Z,12.70
2017-10-30T11:08:08.444Z,12.70
2017-10-30T11:10:36.744Z,12.90
2017-10-30T11:13:05.068Z,13.10
2017-10-30T11:15:34.115Z,13.10
2017-10-30T11:18:02.443Z,13.00
2017-10-30T11:20:30.734Z,13.10
2017-10-30T11:22:59.095Z,13.00
2017-10-30T11:25:28.191Z,12.70
2017-10-30T11:27:56.502Z,12.70
2017-10-30T11:30:24.803Z,13.10
2017-10-30T11:32:53.087Z,12.90
2017-10-30T11:35:21.760Z,12.80
2017-10-30T11:37:50.102Z,12.70
2017-10-30T11:40:18.391Z,12.80
2017-10-30T11:42:46.706Z,12.80
2017-10-30T11:45:15.086Z,12.90
2017-10-30T11:47:43.598Z,12.90
2017-10-30T11:50:17.838Z,12.70
2017-10-30T11:52:46.294Z,12.70
2017-10-30T11:55:14.634Z,12.80
2017-10-30T11:57:42.973Z,12.70
2017-10-30T12:00:11.315Z,13.10
2017-10-30T12:02:39.628Z,13.30
2017-10-30T12:05:07.947Z,13.40
2017-10-30T12:07:36.268Z,13.10
2017-10-30T12:10:04.562Z,13.00
2017-10-30T12:12:32.847Z,13.00
2017-10-30T12:15:01.233Z,12.80
2017-10-30T12:17:29.568Z,12.60
2017-10-30T12:19:57.910Z,12.50
2017-10-30T12:22:27.008Z,12.20
2017-10-30T12:24:55.364Z,12.10
2017-10-30T12:27:23.704Z,12.40
2017-10-30T12:29:52.005Z,12.50
2017-10-30T12:32:20.367Z,12.70
2017-10-30T12:34:49.480Z,12.90
2017-10-30T12:37:17.804Z,12.80
2017-10-30T12:39:46.148Z,12.60
2017-10-30T12:42:14.454Z,12.50
2017-10-30T12:44:42.824Z,12.50
2017-10-30T12:47:11.135Z,12.60
2017-10-30T12:49:39.471Z,13.00
2017-10-30T12:52:08.570Z,13.60
2017-10-30T12:54:36.916Z,13.60
2017-10-30T12:57:06.050Z,12.90
2017-10-30T12:59:35.183Z,12.40
2017-10-30T13:02:03.526Z,12.40
2017-10-30T13:04:31.832Z,12.10
2017-10-30T13:07:00.143Z,11.80
2017-10-30T13:09:33.567Z,11.80
2017-10-30T13:12:01.908Z,11.70
2017-10-30T13:14:41.102Z,11.70
2017-10-30T13:17:10.426Z,11.70
2017-10-30T13:19:38.731Z,11.70
2017-10-30T13:22:07.997Z,11.60
2017-10-30T13:24:36.348Z,11.50
2017-10-30T13:27:04.655Z,11.40
2017-10-30T13:29:33.023Z,11.30
2017-10-30T13:32:01.309Z,11.20
2017-10-30T13:34:31.564Z,11.10
2017-10-30T13:36:59.861Z,11.00
2017-10-30T13:39:28.240Z,10.90
2017-10-30T13:41:57.627Z,10.70
2017-10-30T13:44:26.744Z,10.70
2017-10-30T13:46:55.861Z,10.70
2017-10-30T13:49:25.032Z,10.60
2017-10-30T13:51:53.391Z,10.60
2017-10-30T13:54:21.767Z,10.50
2017-10-30T13:56:50.119Z,10.50
2017-10-30T13:59:25.923Z,10.40
2017-10-30T14:01:54.264Z,10.30
2017-10-30T14:04:23.592Z,10.30
2017-10-30T14:06:52.644Z,10.30
2017-10-30T14:09:20.954Z,10.30
2017-10-30T14:11:49.335Z,10.30
2017-10-30T14:14:18.420Z,10.40
2017-10-30T14:16:46.845Z,10.30
2017-10-30T14:19:16.149Z,10.40
2017-10-30T14:21:44.547Z,10.40
2017-10-30T14:24:13.852Z,10.40
2017-10-30T14:26:42.168Z,10.40
2017-10-30T14:29:10.487Z,10.50
2017-10-30T14:31:38.806Z,10.50
2017-10-30T14:34:07.140Z,10.50
2017-10-30T14:36:36.219Z,10.40
2017-10-30T14:39:04.567Z,10.40
2017-10-30T14:41:32.937Z,10.40
2017-10-30T14:44:01.282Z,10.30
2017-10-30T14:46:30.358Z,10.20
2017-10-30T14:48:58.697Z,10.20
2017-10-30T14:51:30.253Z,10.30
2017-10-30T14:53:58.547Z,10.30
2017-10-30T14:56:26.924Z,10.30
2017-10-30T14:58:55.289Z,10.30
2017-10-30T15:01:23.608Z,10.20
2017-10-30T15:03:52.683Z,10.10
2017-10-30T15:06:21.934Z,10.10
2017-10-30T15:08:50.259Z,10.10
2017-10-30T15:11:19.359Z,10.00
2017-10-30T15:13:47.667Z,10.00
2017-10-30T15:16:15.968Z,10.10
2017-10-30T15:18:44.309Z,10.00
2017-10-30T15:21:12.658Z,9.90
2017-10-30T15:23:59.313Z,9.90
2017-10-30T15:26:27.665Z,9.80
2017-10-30T15:29:00.330Z,9.80
2017-10-30T15:31:29.498Z,9.80
2017-10-30T15:33:58.518Z,9.70
2017-10-30T15:36:26.798Z,9.70
2017-10-30T15:38:55.104Z,9.60
2017-10-30T15:41:23.403Z,9.60
2017-10-30T15:43:51.757Z,9.60
2017-10-30T15:46:20.035Z,9.60
2017-10-30T15:48:49.289Z,9.50
2017-10-30T15:51:19.552Z,9.50
2017-10-30T15:53:47.888Z,9.60
2017-10-30T15:56:17.179Z,9.50
2017-10-30T15:58:50.996Z,9.50
2017-10-30T16:01:20.155Z,9.40
2017-10-30T16:03:49.203Z,9.40
2017-10-30T16:06:17.557Z,9.40
2017-10-30T16:08:52.987Z,9.30
2017-10-30T16:11:21.312Z,9.30
2017-10-30T16:13:49.598Z,9.30
2017-10-30T16:16:17.941Z,9.20
2017-10-30T16:18:46.978Z,9.20
2017-10-30T16:21:15.304Z,9.20
2017-10-30T16:23:43.599Z,9.20
2017-10-30T16:26:11.892Z,9.20
2017-10-30T16:28:41.112Z,9.20
2017-10-30T16:31:09.403Z,9.20
2017-10-30T16:33:38.503Z,9.30
2017-10-30T16:36:06.797Z,9.20
2017-10-30T16:38:35.103Z,9.20
2017-10-30T16:41:04.286Z,9.20
2017-10-30T16:43:32.596Z,9.20
2017-10-30T16:46:00.924Z,9.30
2017-10-30T16:48:29.223Z,9.20
2017-10-30T16:50:57.549Z,9.30
2017-10-30T16:53:25.880Z,9.20
2017-10-30T16:55:54.142Z,9.20
2017-10-30T16:58:23.253Z,9.20
2017-10-30T17:00:51.574Z,9.20
2017-10-30T17:03:19.844Z,9.20
2017-10-30T17:05:48.917Z,9.20
2017-10-30T17:08:17.216Z,9.10
2017-10-30T17:10:45.504Z,9.20
2017-10-30T17:13:13.813Z,9.20
2017-10-30T17:15:42.131Z,9.20
2017-10-30T17:18:10.432Z,9.20
2017-10-30T17:20:38.718Z,9.20
2017-10-30T17:23:07.014Z,9.10
2017-10-30T17:25:35.289Z,9.10
2017-10-30T17:28:03.650Z,9.10
2017-10-30T17:30:31.948Z,9.10
2017-10-30T17:33:00.227Z,9.10
2017-10-30T17:35:28.575Z,9.10
2017-10-30T17:37:56.883Z,9.20
2017-10-30T17:40:25.183Z,9.10
2017-10-30T17:42:53.523Z,9.10
2017-10-30T17:45:21.807Z,9.10
2017-10-30T17:47:50.158Z,9.10
2017-10-30T17:50:18.450Z,9.10
2017-10-30T17:52:47.494Z,9.10
2017-10-30T17:55:15.926Z,9.10
2017-10-30T17:57:44.247Z,9.10
2017-10-30T18:00:12.526Z,9.00
2017-10-30T18:02:40.794Z,9.00
2017-10-30T18:05:09.120Z,9.10
2017-10-30T18:07:37.435Z,9.00
2017-10-30T18:10:07.700Z,9.00
2017-10-30T18:12:36.016Z,8.90
2017-10-30T18:15:05.124Z,9.00
2017-10-30T18:17:33.479Z,8.90
2017-10-30T18:20:01.789Z,9.00
2017-10-30T18:22:30.357Z,8.90
2017-10-30T18:24:59.496Z,8.90
2017-10-30T18:27:28.669Z,8.90
2017-10-30T18:29:57.777Z,8.90
2017-10-30T18:32:26.078Z,8.90
2017-10-30T18:34:54.450Z,8.90
2017-10-30T18:37:22.756Z,8.80
2017-10-30T18:39:51.814Z,8.80
2017-10-30T18:42:23.524Z,8.80
2017-10-30T18:44:51.857Z,8.80
2017-10-30T18:47:22.443Z,8.80
2017-10-30T18:49:50.822Z,8.70
2017-10-30T18:52:19.168Z,8.70
2017-10-30T18:54:47.522Z,8.70
2017-10-30T18:57:15.844Z,8.70
2017-10-30T18:59:44.315Z,8.70
2017-10-30T19:02:13.384Z,8.70
2017-10-30T19:04:42.753Z,8.70
2017-10-30T19:07:13.839Z,8.70
2017-10-30T19:09:43.281Z,8.60
2017-10-30T19:12:11.626Z,8.70
2017-10-30T19:14:42.397Z,8.60
2017-10-30T19:17:13.614Z,8.60
2017-10-30T19:19:42.941Z,8.50
2017-10-30T19:22:12.831Z,8.50
2017-10-30T19:24:44.057Z,8.40
2017-10-30T19:27:14.105Z,8.20
2017-10-30T19:29:43.801Z,8.20
2017-10-30T19:32:13.214Z,8.10
2017-10-30T19:34:42.427Z,8.00
2017-10-30T19:37:11.689Z,8.00
2017-10-30T19:39:43.834Z,7.70
2017-10-30T19:42:14.201Z,7.60
2017-10-30T19:44:47.928Z,7.60
2017-10-30T19:47:16.349Z,7.50
2017-10-30T19:49:44.695Z,7.40
2017-10-30T19:52:13.783Z,7.30
2017-10-30T19:54:42.411Z,7.30
2017-10-30T19:57:11.530Z,7.20
2017-10-30T19:59:40.095Z,7.20
2017-10-30T20:02:10.735Z,7.20
2017-10-30T20:04:44.535Z,7.10
2017-10-30T20:07:20.122Z,7.20
2017-10-30T20:09:53.998Z,7.10
2017-10-30T20:12:27.787Z,7.20
2017-10-30T20:14:57.592Z,7.10
2017-10-30T20:17:28.171Z,7.10
2017-10-30T20:19:56.548Z,7.10
2017-10-30T20:22:24.853Z,7.10
2017-10-30T20:24:54.437Z,7.10
2017-10-30T20:27:22.838Z,7.00
2017-10-30T20:29:58.468Z,7.00
2017-10-30T20:32:26.912Z,7.00
2017-10-30T20:34:55.290Z,6.90
2017-10-30T20:37:23.664Z,6.90
2017-10-30T20:39:52.005Z,6.80
2017-10-30T20:42:21.079Z,6.80
2017-10-30T20:44:49.415Z,6.70
2017-10-30T20:47:17.795Z,6.70
2017-10-30T20:49:46.159Z,6.70
2017-10-30T20:52:14.482Z,6.60
2017-10-30T20:54:44.739Z,6.50
2017-10-30T20:57:13.054Z,6.40
2017-10-30T20:59:41.482Z,6.40
2017-10-30T21:02:10.665Z,6.40
2017-10-30T21:04:39.026Z,6.40
2017-10-30T21:07:14.801Z,6.40
2017-10-30T21:09:43.194Z,6.40
2017-10-30T21:12:12.351Z,6.40
2017-10-30T21:14:40.713Z,6.30
2017-10-30T21:17:09.807Z,6.40
2017-10-30T21:19:38.090Z,6.40
2017-10-30T21:22:06.445Z,6.50
2017-10-30T21:24:35.534Z,6.50
2017-10-30T21:27:03.886Z,6.50
2017-10-30T21:29:32.228Z,6.50
2017-10-30T21:32:01.462Z,6.60
2017-10-30T21:34:29.779Z,6.50
2017-10-30T21:36:58.076Z,6.50
2017-10-30T21:39:26.393Z,6.50
2017-10-30T21:41:55.504Z,6.40
2017-10-30T21:44:25.776Z,6.40
2017-10-30T21:46:54.103Z,6.40
2017-10-30T21:49:22.417Z,6.30
2017-10-30T21:51:50.716Z,6.30
2017-10-30T21:54:19.808Z,6.20
2017-10-30T21:56:48.153Z,6.20
2017-10-30T21:59:16.462Z,6.20
2017-10-30T22:01:45.759Z,6.10
2017-10-30T22:04:14.820Z,6.00
2017-10-30T22:06:43.115Z,6.00
2017-10-30T22:09:11.638Z,5.90
2017-10-30T22:11:40.175Z,5.80
2017-10-30T22:14:08.794Z,5.80
2017-10-30T22:16:38.136Z,5.70
2017-10-30T22:19:06.936Z,5.70
2017-10-30T22:21:35.867Z,5.70
2017-10-30T22:24:04.573Z,5.70
2017-10-30T22:26:34.752Z,5.60
2017-10-30T22:29:04.589Z,5.60
2017-10-30T22:31:35.153Z,5.50
2017-10-30T22:34:03.549Z,5.50
2017-10-30T22:36:31.912Z,5.40
2017-10-30T22:39:02.112Z,5.30
2017-10-30T22:41:31.356Z,5.40
2017-10-30T22:43:59.881Z,5.30
2017-10-30T22:46:30.973Z,5.30
2017-10-30T22:48:59.410Z,5.30
2017-10-30T22:51:29.681Z,5.40
2017-10-30T22:53:58.869Z,5.40
2017-10-30T22:56:27.291Z,5.40
2017-10-30T22:58:55.603Z,5.40
2017-10-30T23:01:24.024Z,5.30
2017-10-30T23:03:52.402Z,5.20
2017-10-30T23:06:20.719Z,5.10
2017-10-30T23:08:49.031Z,5.10
2017-10-30T23:11:17.349Z,5.10
2017-10-30T23:13:45.725Z,5.10
2017-10-30T23:16:14.979Z,5.10
2017-10-30T23:18:43.263Z,5.10
2017-10-30T23:21:17.424Z,5.10
2017-10-30T23:23:45.739Z,5.10
2017-10-30T23:26:14.818Z,5.10
2017-10-30T23:28:43.123Z,5.10
2017-10-30T23:31:11.439Z,5.10
2017-10-30T23:33:39.856Z,5.10
2017-10-30T23:36:10.866Z,5.00
2017-10-30T23:38:39.260Z,5.00
2017-10-30T23:41:07.654Z,4.90
2017-10-30T23:43:36.004Z,4.90
2017-10-30T23:46:05.332Z,4.80
2017-10-30T23:48:33.736Z,4.80
2017-10-30T23:51:02.196Z,4.70
2017-10-30T23:53:31.526Z,4.70
2017-10-30T23:56:01.854Z,4.60
2017-10-30T23:58:30.394Z,4.70
